»·PEaware :: N49LP KSMX-KTOA

N49LP :: KSMX-KTOA

FLIGHT INFORMATION

Flight Status: Arrived
Operator: Privately registered:
United States
More flights under this callsign
Pilot: Les P. (123)
Aircraft: BEECH AIRCRAFT BONANZA
(BE35)
More flights by this aircraft type
Origin: KSMX Santa Maria Pub/Capt Hancock
United States
Destination: KTOA Zamperini
United States
More flights between these airports :: More routes between these airports
Route: RZS V186 ADAMM V394 SLI
File this flight plan on PilotEdge
Remarks: TEC SBAP40
Altitude:
(Current/Filed)
7,000ft
Speed:
(Current/Filed)
167kts
Departed: 15-Dec-19 02:58 PM
Arrived: 15-Dec-19 04:07 PM
Distance/Time
Traveled:
124nm/1:09
Distance/Time
To Go:
Arrived

Flight Plot

Page will automatically refresh every two minutes.

Flight plan parsing failed; only flown route is shown


Map Options




Map Legend


Flown Route
Filed Route
Departure Airport
Arrival Airport
Navaid (VOR, NDB)
Fix

Horizontal Profiles

Position Reports

Time Latitude Longitude Heading Altitude Ground
Speed
15-Dec-19 14:26 34.896369 -120.445707 317 264ft 0kts
15-Dec-19 14:27 34.896369 -120.445707 317 264ft 0kts
15-Dec-19 14:28 34.896369 -120.445707 317 264ft 0kts
15-Dec-19 14:29 34.896369 -120.445707 317 264ft 0kts
15-Dec-19 14:30 34.896369 -120.445707 317 264ft 0kts
15-Dec-19 14:31 34.896369 -120.445707 317 264ft 0kts
15-Dec-19 14:32 34.896369 -120.445707 317 264ft 0kts
15-Dec-19 14:33 34.896369 -120.445707 317 264ft 0kts
15-Dec-19 14:34 34.896369 -120.445707 317 264ft 0kts
15-Dec-19 14:35 34.896369 -120.445707 317 264ft 0kts
15-Dec-19 14:36 34.896369 -120.445707 317 264ft 0kts
15-Dec-19 14:37 34.896369 -120.445707 317 264ft 0kts
15-Dec-19 14:38 34.896369 -120.445707 317 264ft 0kts
15-Dec-19 14:39 34.896370 -120.445708 317 264ft 0kts
15-Dec-19 14:40 34.896372 -120.445710 317 264ft 0kts
15-Dec-19 14:41 34.896373 -120.445712 317 264ft 0kts
15-Dec-19 14:42 34.896375 -120.445713 317 264ft 0kts
15-Dec-19 14:43 34.896377 -120.445715 317 264ft 0kts
15-Dec-19 14:44 34.896378 -120.445717 317 264ft 0kts
15-Dec-19 14:45 34.896380 -120.445719 317 264ft 0kts
15-Dec-19 14:46 34.896382 -120.445721 317 264ft 0kts
15-Dec-19 14:48 34.896384 -120.445723 317 264ft 0kts
15-Dec-19 14:49 34.896385 -120.445725 317 264ft 0kts
15-Dec-19 14:50 34.896387 -120.445727 317 264ft 0kts
15-Dec-19 14:51 34.896389 -120.445729 317 264ft 0kts
15-Dec-19 14:52 34.896416 -120.445759 316 264ft 2kts
15-Dec-19 14:53 34.894484 -120.445351 160 264ft 7kts
15-Dec-19 14:54 34.893565 -120.445196 181 264ft 0kts
15-Dec-19 14:55 34.893561 -120.445196 181 264ft 0kts
15-Dec-19 14:56 34.893558 -120.445196 181 264ft 0kts
15-Dec-19 14:57 34.893532 -120.445197 181 264ft 2kts
15-Dec-19 14:58 34.900033 -120.454281 317 448ft 84kts
15-Dec-19 14:59 34.915341 -120.452123 116 1716ft 121kts
15-Dec-19 15:00 34.889866 -120.420131 125 2874ft 138kts
15-Dec-19 15:01 34.868323 -120.385311 114 4054ft 125kts
15-Dec-19 15:02 34.848646 -120.350047 114 5022ft 126kts
15-Dec-19 15:03 34.828659 -120.315235 113 5930ft 124kts
15-Dec-19 15:04 34.808618 -120.280948 115 6814ft 124kts
15-Dec-19 15:04 34.790319 -120.249236 118 7114ft 164kts
15-Dec-19 15:06 34.755505 -120.190371 119 6996ft 185kts
15-Dec-19 15:07 34.726128 -120.139837 118 6989ft 182kts
15-Dec-19 15:07 34.701532 -120.097735 118 6985ft 183kts
15-Dec-19 15:08 34.672097 -120.047397 118 6974ft 182kts
15-Dec-19 15:10 34.637651 -119.988905 118 6971ft 183kts
15-Dec-19 15:11 34.608221 -119.938447 118 6972ft 184kts
15-Dec-19 15:11 34.583423 -119.896415 118 6961ft 183kts
15-Dec-19 15:12 34.553835 -119.846152 118 6955ft 182kts
15-Dec-19 15:13 34.524539 -119.796117 118 7007ft 182kts
15-Dec-19 15:14 34.495375 -119.745947 115 7010ft 181kts
15-Dec-19 15:15 34.467975 -119.694494 115 7006ft 181kts
15-Dec-19 15:16 34.440333 -119.643236 116 7006ft 181kts
15-Dec-19 15:17 34.412517 -119.592241 116 7008ft 181kts
15-Dec-19 15:18 34.384757 -119.541205 116 7003ft 181kts
15-Dec-19 15:19 34.357067 -119.490406 116 7010ft 180kts
15-Dec-19 15:20 34.329542 -119.439984 116 7002ft 180kts
15-Dec-19 15:21 34.319124 -119.386573 73 6997ft 161kts
15-Dec-19 15:22 34.323090 -119.332335 75 6993ft 162kts
15-Dec-19 15:23 34.327166 -119.278145 75 6994ft 161kts
15-Dec-19 15:24 34.331324 -119.224092 76 6990ft 161kts
15-Dec-19 15:25 34.335358 -119.170069 76 7000ft 162kts
15-Dec-19 15:26 34.339491 -119.115480 76 6995ft 162kts
15-Dec-19 15:27 34.343433 -119.061232 77 7002ft 161kts
15-Dec-19 15:28 34.347493 -119.006745 77 7000ft 163kts
15-Dec-19 15:29 34.351488 -118.951897 78 7009ft 162kts
15-Dec-19 15:30 34.355526 -118.898041 78 7016ft 160kts
15-Dec-19 15:31 34.344294 -118.845108 108 7019ft 168kts
15-Dec-19 15:32 34.326546 -118.792759 107 7019ft 167kts
15-Dec-19 15:33 34.308966 -118.740633 107 7013ft 167kts
15-Dec-19 15:34 34.291233 -118.688732 107 7009ft 167kts
15-Dec-19 15:35 34.273427 -118.637133 107 7009ft 166kts
15-Dec-19 15:36 34.255828 -118.585815 108 6916ft 170kts
15-Dec-19 15:37 34.236934 -118.531197 108 6398ft 180kts
15-Dec-19 15:38 34.218124 -118.475193 107 5868ft 179kts
15-Dec-19 15:39 34.201294 -118.418447 107 5354ft 178kts
15-Dec-19 15:40 34.184489 -118.362872 107 4990ft 169kts
15-Dec-19 15:41 34.168859 -118.311533 107 4979ft 158kts
15-Dec-19 15:42 34.153787 -118.262140 107 4981ft 157kts
15-Dec-19 15:43 34.138640 -118.212426 108 4974ft 157kts
15-Dec-19 15:44 34.123473 -118.162785 108 4968ft 157kts
15-Dec-19 15:45 34.108473 -118.113856 108 4987ft 157kts
15-Dec-19 15:46 34.093346 -118.064443 108 4982ft 156kts
15-Dec-19 15:47 34.078342 -118.015425 108 4981ft 156kts
15-Dec-19 15:48 34.063064 -117.965832 108 4978ft 157kts
15-Dec-19 15:49 34.047801 -117.916278 108 4981ft 157kts
15-Dec-19 15:50 34.032627 -117.866953 108 4979ft 156kts
15-Dec-19 15:51 34.003620 -117.835193 189 4998ft 160kts
15-Dec-19 15:52 33.966003 -117.869225 219 4416ft 181kts
15-Dec-19 15:53 33.928298 -117.907521 219 3991ft 165kts
15-Dec-19 15:54 33.888786 -117.928276 206 3982ft 154kts
15-Dec-19 15:55 33.847909 -117.917282 157 3978ft 159kts
15-Dec-19 15:56 33.814403 -117.934852 255 3985ft 156kts
15-Dec-19 15:57 33.801493 -117.984906 254 3987ft 158kts
15-Dec-19 15:58 33.787981 -118.037645 254 3379ft 167kts
15-Dec-19 15:59 33.774458 -118.089251 253 2529ft 157kts
15-Dec-19 16:00 33.761657 -118.137829 253 2002ft 148kts
15-Dec-19 16:01 33.749372 -118.184445 255 1992ft 145kts
15-Dec-19 16:02 33.737727 -118.230529 257 1992ft 143kts
15-Dec-19 16:03 33.754771 -118.269713 309 1716ft 130kts
15-Dec-19 16:04 33.777013 -118.297588 304 1026ft 102kts
15-Dec-19 16:05 33.792435 -118.321923 301 401ft 77kts
15-Dec-19 16:06 33.803261 -118.338553 308 106ft 37kts
15-Dec-19 16:07 33.805858 -118.343758 288 106ft 0kts
15-Dec-19 16:08 33.806084 -118.344696 267 106ft 2kts
15-Dec-19 16:09 33.806083 -118.344731 265 106ft 0kts
15-Dec-19 16:10 33.806052 -118.344856 242 106ft 4kts
15-Dec-19 16:11 33.804158 -118.344978 129 106ft 12kts
15-Dec-19 16:12 33.801539 -118.341063 130 106ft 17kts
15-Dec-19 16:13 33.801074 -118.340649 208 106ft 0kts
15-Dec-19 16:14 33.801072 -118.340650 208 106ft 0kts
15-Dec-19 16:15 33.801070 -118.340652 208 106ft 0kts
15-Dec-19 16:16 33.801070 -118.340651 208 106ft 0kts

Navigation Log

Ident Type
Flight plan parsing failed, navigation log unavailable